createdAt,value
2018-04-29T00:00:01.837Z,9.60
2018-04-29T00:01:01.840Z,8.90
2018-04-29T00:02:02.057Z,9.00
2018-04-29T00:03:01.863Z,8.60
2018-04-29T00:04:01.880Z,8.20
2018-04-29T00:05:01.897Z,7.30
2018-04-29T00:06:02.015Z,12.00
2018-04-29T00:07:02.180Z,9.00
2018-04-29T00:08:01.944Z,9.10
2018-04-29T00:09:01.963Z,7.40
2018-04-29T00:10:01.980Z,10.80
2018-04-29T00:11:01.994Z,8.80
2018-04-29T00:12:02.009Z,7.70
2018-04-29T00:13:02.026Z,7.50
2018-04-29T00:14:02.042Z,9.80
2018-04-29T00:15:02.066Z,8.70
2018-04-29T00:16:02.076Z,7.70
2018-04-29T00:17:02.090Z,7.10
2018-04-29T00:18:02.106Z,6.90
2018-04-29T00:19:02.121Z,7.20
2018-04-29T00:20:02.148Z,8.90
2018-04-29T00:21:02.157Z,7.70
2018-04-29T00:22:02.173Z,9.90
2018-04-29T00:23:02.208Z,6.90
2018-04-29T00:24:02.207Z,8.70
2018-04-29T00:25:02.233Z,9.10
2018-04-29T00:26:02.235Z,7.50
2018-04-29T00:27:02.254Z,9.00
2018-04-29T00:28:02.269Z,6.90
2018-04-29T00:29:02.286Z,8.00
2018-04-29T00:30:02.303Z,8.60
2018-04-29T00:31:02.318Z,8.10
2018-04-29T00:32:02.335Z,8.50
2018-04-29T00:33:02.349Z,11.00
2018-04-29T00:34:02.365Z,8.30
2018-04-29T00:35:02.400Z,9.40
2018-04-29T00:36:02.413Z,8.80
2018-04-29T00:37:02.419Z,10.90
2018-04-29T00:38:02.428Z,8.10
2018-04-29T00:39:02.448Z,9.00
2018-04-29T00:40:02.460Z,7.80
2018-04-29T00:41:02.510Z,10.00
2018-04-29T00:42:02.494Z,9.30
2018-04-29T00:43:02.518Z,11.70
2018-04-29T00:44:02.533Z,9.10
2018-04-29T00:45:02.542Z,10.10
2018-04-29T00:46:02.558Z,11.20
2018-04-29T00:47:02.577Z,8.90
2018-04-29T00:48:02.592Z,9.50
2018-04-29T00:49:02.608Z,9.30
2018-04-29T00:50:02.624Z,9.10
2018-04-29T00:51:02.641Z,8.40
2018-04-29T00:52:02.655Z,8.50
2018-04-29T00:53:02.670Z,9.40
2018-04-29T00:54:02.686Z,10.00
2018-04-29T00:55:02.755Z,8.90
2018-04-29T00:56:02.724Z,8.50
2018-04-29T00:57:02.734Z,8.70
2018-04-29T00:58:02.751Z,9.70
2018-04-29T00:59:02.786Z,8.60
2018-04-29T01:00:02.784Z,7.80
2018-04-29T01:01:02.796Z,8.90
2018-04-29T01:02:02.810Z,8.80
2018-04-29T01:03:02.824Z,9.90
2018-04-29T01:04:02.844Z,9.90
2018-04-29T01:05:02.856Z,11.60
2018-04-29T01:06:02.943Z,7.20
2018-04-29T01:07:02.889Z,9.80
2018-04-29T01:08:02.905Z,9.50
2018-04-29T01:09:02.927Z,10.40
2018-04-29T01:10:02.937Z,8.70
2018-04-29T01:11:02.952Z,7.00
2018-04-29T01:12:02.968Z,8.10
2018-04-29T01:13:02.985Z,9.60
2018-04-29T01:14:03.000Z,10.60
2018-04-29T01:15:03.016Z,8.70
2018-04-29T01:16:03.035Z,8.60
2018-04-29T01:17:03.047Z,7.40
2018-04-29T01:18:03.074Z,9.60
2018-04-29T01:19:03.081Z,10.60
2018-04-29T01:20:03.100Z,8.80
2018-04-29T01:21:03.120Z,9.20
2018-04-29T01:22:03.130Z,8.20
2018-04-29T01:23:03.144Z,9.40
2018-04-29T01:24:03.160Z,8.50
2018-04-29T01:25:03.179Z,8.90
2018-04-29T01:26:03.193Z,8.50
2018-04-29T01:27:03.207Z,10.10
2018-04-29T01:28:03.226Z,9.90
2018-04-29T01:29:03.240Z,9.50
2018-04-29T01:30:03.256Z,12.40
2018-04-29T01:31:03.626Z,8.60
2018-04-29T01:32:03.293Z,9.60
2018-04-29T01:33:03.308Z,8.10
2018-04-29T01:34:03.322Z,10.00
2018-04-29T01:35:03.336Z,10.40
2018-04-29T01:36:03.354Z,10.00
2018-04-29T01:37:03.367Z,10.10
2018-04-29T01:38:03.388Z,9.80
2018-04-29T01:39:03.399Z,9.00
2018-04-29T01:40:03.415Z,8.70
2018-04-29T01:41:03.433Z,11.30
2018-04-29T01:42:03.554Z,8.70
2018-04-29T01:43:03.463Z,9.50
2018-04-29T01:44:03.479Z,7.70
2018-04-29T01:45:03.496Z,9.50
2018-04-29T01:46:03.513Z,10.30
2018-04-29T01:47:03.528Z,10.30
2018-04-29T01:48:03.542Z,10.10
2018-04-29T01:49:03.564Z,8.10
2018-04-29T01:50:03.575Z,9.90
2018-04-29T01:51:03.591Z,10.20
2018-04-29T01:52:03.607Z,10.50
2018-04-29T01:53:03.622Z,10.20
2018-04-29T01:54:03.639Z,10.70
2018-04-29T01:55:03.654Z,10.50
2018-04-29T01:56:03.668Z,9.70
2018-04-29T01:57:03.687Z,10.10
2018-04-29T01:58:03.705Z,10.90
2018-04-29T01:59:03.720Z,10.90
2018-04-29T02:00:03.733Z,9.00
2018-04-29T02:01:03.750Z,9.90
2018-04-29T02:02:03.767Z,10.00
2018-04-29T02:03:03.790Z,9.30
2018-04-29T02:04:04.141Z,10.20
2018-04-29T02:05:03.813Z,12.20
2018-04-29T02:06:03.829Z,9.70
2018-04-29T02:07:03.845Z,9.40
2018-04-29T02:08:03.860Z,11.20
2018-04-29T02:09:03.878Z,8.90
2018-04-29T02:10:03.894Z,10.20
2018-04-29T02:11:03.906Z,8.70
2018-04-29T02:12:03.926Z,10.60
2018-04-29T02:13:03.945Z,11.90
2018-04-29T02:14:03.956Z,9.00
2018-04-29T02:15:03.974Z,12.70
2018-04-29T02:16:03.988Z,10.10
2018-04-29T02:17:04.009Z,10.30
2018-04-29T02:18:04.023Z,10.70
2018-04-29T02:19:04.040Z,13.10
2018-04-29T02:20:04.050Z,10.30
2018-04-29T02:21:04.067Z,11.90
2018-04-29T02:22:04.080Z,10.70
2018-04-29T02:23:04.097Z,10.90
2018-04-29T02:24:04.117Z,8.90
2018-04-29T02:25:04.133Z,11.60
2018-04-29T02:26:04.153Z,10.80
2018-04-29T02:27:04.161Z,10.10
2018-04-29T02:28:04.177Z,10.90
2018-04-29T02:29:04.192Z,11.50
2018-04-29T02:30:04.212Z,8.90
2018-04-29T02:31:04.223Z,10.80
2018-04-29T02:32:04.244Z,11.20
2018-04-29T02:33:04.256Z,10.90
2018-04-29T02:34:04.272Z,10.00
2018-04-29T02:35:04.290Z,10.30
2018-04-29T02:36:04.396Z,11.80
2018-04-29T02:37:04.326Z,10.30
2018-04-29T02:38:04.338Z,12.00
2018-04-29T02:39:04.349Z,12.90
2018-04-29T02:40:04.369Z,12.00
2018-04-29T02:41:04.385Z,11.50
2018-04-29T02:42:04.399Z,13.10
2018-04-29T02:43:04.415Z,11.10
2018-04-29T02:44:04.433Z,15.60
2018-04-29T02:45:04.446Z,12.80
2018-04-29T02:46:04.460Z,10.80
2018-04-29T02:47:04.476Z,10.80
2018-04-29T02:48:04.491Z,11.10
2018-04-29T02:49:04.508Z,12.10
2018-04-29T02:50:04.524Z,11.50
2018-04-29T02:51:04.543Z,13.90
2018-04-29T02:52:04.556Z,10.40
2018-04-29T02:53:04.572Z,11.10
2018-04-29T02:54:04.589Z,10.70
2018-04-29T02:55:04.603Z,12.40
2018-04-29T02:56:04.617Z,12.70
2018-04-29T02:57:04.633Z,12.00
2018-04-29T02:58:04.649Z,11.80
2018-04-29T02:59:04.668Z,12.90
2018-04-29T03:00:04.682Z,16.30
2018-04-29T03:01:04.699Z,9.90
2018-04-29T03:02:04.725Z,11.20
2018-04-29T03:03:04.727Z,14.00
2018-04-29T03:04:04.744Z,13.20
2018-04-29T03:05:04.761Z,11.90
2018-04-29T03:06:04.774Z,12.00
2018-04-29T03:07:04.843Z,11.20
2018-04-29T03:08:04.809Z,13.30
2018-04-29T03:09:04.821Z,12.00
2018-04-29T03:10:04.837Z,11.30
2018-04-29T03:11:04.854Z,11.30
2018-04-29T03:12:04.875Z,13.50
2018-04-29T03:13:04.884Z,12.30
2018-04-29T03:14:04.899Z,15.10
2018-04-29T03:15:04.915Z,12.60
2018-04-29T03:16:04.930Z,12.20
2018-04-29T03:17:04.946Z,13.80
2018-04-29T03:18:04.966Z,13.50
2018-04-29T03:19:04.978Z,12.90
2018-04-29T03:20:04.988Z,16.40
2018-04-29T03:21:05.062Z,13.50
2018-04-29T03:22:05.035Z,13.50
2018-04-29T03:23:05.045Z,13.30
2018-04-29T03:24:05.058Z,12.30
2018-04-29T03:25:05.071Z,14.10
2018-04-29T03:26:05.085Z,12.90
2018-04-29T03:27:05.131Z,13.10
2018-04-29T03:28:05.115Z,13.40
2018-04-29T03:29:05.136Z,14.50
2018-04-29T03:30:05.148Z,11.70
2018-04-29T03:31:05.162Z,12.00
2018-04-29T03:32:05.179Z,13.10
2018-04-29T03:33:05.194Z,12.00
2018-04-29T03:34:05.209Z,12.90
2018-04-29T03:35:05.226Z,13.30
2018-04-29T03:36:05.241Z,12.80
2018-04-29T03:37:05.257Z,12.60
2018-04-29T03:38:05.276Z,11.80
2018-04-29T03:39:05.288Z,12.00
2018-04-29T03:40:05.322Z,12.00
2018-04-29T03:41:05.325Z,15.80
2018-04-29T03:42:05.339Z,15.80
2018-04-29T03:43:05.349Z,12.50
2018-04-29T03:44:05.367Z,12.40
2018-04-29T03:45:05.380Z,12.10
2018-04-29T03:46:05.395Z,12.30
2018-04-29T03:47:05.410Z,13.20
2018-04-29T03:48:05.430Z,12.20
2018-04-29T03:49:05.442Z,14.10
2018-04-29T03:50:05.460Z,13.30
2018-04-29T03:51:05.476Z,13.20
2018-04-29T03:52:05.489Z,16.50
2018-04-29T03:53:05.505Z,12.30
2018-04-29T03:54:05.520Z,13.80
2018-04-29T03:55:05.534Z,12.70
2018-04-29T03:56:05.573Z,13.00
2018-04-29T03:57:05.565Z,12.40
2018-04-29T03:58:05.582Z,12.40
2018-04-29T03:59:05.596Z,13.30
2018-04-29T04:00:05.614Z,12.20
2018-04-29T04:01:05.729Z,11.90
2018-04-29T04:02:05.650Z,11.80
2018-04-29T04:03:05.659Z,13.80
2018-04-29T04:04:05.672Z,13.40
2018-04-29T04:05:05.687Z,12.70
2018-04-29T04:06:05.707Z,12.80
2018-04-29T04:07:05.719Z,13.10
2018-04-29T04:08:05.733Z,13.80
2018-04-29T04:09:05.751Z,13.00
2018-04-29T04:10:05.771Z,15.10
2018-04-29T04:11:05.780Z,13.50
2018-04-29T04:12:05.797Z,13.30
2018-04-29T04:13:05.816Z,13.20
2018-04-29T04:14:05.847Z,13.00
2018-04-29T04:15:05.844Z,13.40
2018-04-29T04:16:05.857Z,16.00
2018-04-29T04:17:05.872Z,13.00
2018-04-29T04:18:05.897Z,14.70
2018-04-29T04:19:05.903Z,12.00
2018-04-29T04:20:05.917Z,16.50
2018-04-29T04:21:05.934Z,14.20
2018-04-29T04:22:05.952Z,16.70
2018-04-29T04:23:05.969Z,15.60
2018-04-29T04:24:05.983Z,14.40
2018-04-29T04:25:05.995Z,13.30
2018-04-29T04:26:06.011Z,13.20
2018-04-29T04:27:06.027Z,13.70
2018-04-29T04:28:06.041Z,14.50
2018-04-29T04:29:06.060Z,14.10
2018-04-29T04:30:06.074Z,13.60
2018-04-29T04:31:06.088Z,15.10
2018-04-29T04:32:06.103Z,13.50
2018-04-29T04:33:06.120Z,14.10
2018-04-29T04:34:06.191Z,14.00
2018-04-29T04:35:06.151Z,12.80
2018-04-29T04:36:06.166Z,12.50
2018-04-29T04:37:06.180Z,14.20
2018-04-29T04:38:06.196Z,13.00
2018-04-29T04:39:06.216Z,15.50
2018-04-29T04:40:06.226Z,13.00
2018-04-29T04:41:06.241Z,12.40
2018-04-29T04:42:06.273Z,14.40
2018-04-29T04:43:06.276Z,12.80
2018-04-29T04:44:06.287Z,12.80
2018-04-29T04:45:06.308Z,17.50
2018-04-29T04:46:06.320Z,13.90
2018-04-29T04:47:06.336Z,12.90
2018-04-29T04:48:06.402Z,13.00
2018-04-29T04:49:06.365Z,13.20
2018-04-29T04:50:06.480Z,13.10
2018-04-29T04:51:06.393Z,16.90
2018-04-29T04:52:06.413Z,15.00
2018-04-29T04:53:06.428Z,16.00
2018-04-29T04:54:06.440Z,13.00
2018-04-29T04:55:06.658Z,14.50
2018-04-29T04:56:06.473Z,12.20
2018-04-29T04:57:06.485Z,15.00
2018-04-29T04:58:06.507Z,13.90
2018-04-29T04:59:06.515Z,12.60
2018-04-29T05:00:06.535Z,15.30
2018-04-29T05:01:06.552Z,14.50
2018-04-29T05:02:06.563Z,13.10
2018-04-29T05:03:06.573Z,12.70
2018-04-29T05:04:06.588Z,13.90
2018-04-29T05:05:06.602Z,13.30
2018-04-29T05:06:06.622Z,15.50
2018-04-29T05:07:06.633Z,13.30
2018-04-29T05:08:06.649Z,12.60
2018-04-29T05:09:06.670Z,13.00
2018-04-29T05:10:06.679Z,12.40
2018-04-29T05:11:06.702Z,13.00
2018-04-29T05:12:06.713Z,12.90
2018-04-29T05:13:06.725Z,12.90
2018-04-29T05:14:06.741Z,14.60
2018-04-29T05:15:06.761Z,13.00
2018-04-29T05:16:06.777Z,14.60
2018-04-29T05:17:06.788Z,13.40
2018-04-29T05:18:06.806Z,13.00
2018-04-29T05:19:06.819Z,12.70
2018-04-29T05:20:06.834Z,14.10
2018-04-29T05:21:06.909Z,12.50
2018-04-29T05:22:06.869Z,16.80
2018-04-29T05:23:06.880Z,13.10
2018-04-29T05:24:06.896Z,12.50
2018-04-29T05:25:06.912Z,13.70
2018-04-29T05:26:06.927Z,13.70
2018-04-29T05:27:06.949Z,16.40
2018-04-29T05:28:06.959Z,15.70
2018-04-29T05:29:06.972Z,14.10
2018-04-29T05:30:06.993Z,16.50
2018-04-29T05:31:07.013Z,14.30
2018-04-29T05:32:07.021Z,12.80
2018-04-29T05:33:07.037Z,13.00
2018-04-29T05:34:07.053Z,14.00
2018-04-29T05:35:07.066Z,15.10
2018-04-29T05:36:07.081Z,12.80
2018-04-29T05:37:07.098Z,12.70
2018-04-29T05:38:07.118Z,12.30
2018-04-29T05:39:07.129Z,12.60
2018-04-29T05:40:07.144Z,12.70
2018-04-29T05:41:07.195Z,12.60
2018-04-29T05:42:07.196Z,13.70
2018-04-29T05:43:07.192Z,14.50
2018-04-29T05:44:07.210Z,13.30
2018-04-29T05:45:07.225Z,13.30
2018-04-29T05:46:07.241Z,12.30
2018-04-29T05:47:07.258Z,13.10
2018-04-29T05:48:07.274Z,13.20
2018-04-29T05:49:07.293Z,13.10
2018-04-29T05:50:07.311Z,12.90
2018-04-29T05:51:07.332Z,13.70
2018-04-29T05:52:07.344Z,12.00
2018-04-29T05:53:07.357Z,12.20
2018-04-29T05:54:07.371Z,12.90
2018-04-29T05:55:07.696Z,13.70
2018-04-29T05:56:07.431Z,13.30
2018-04-29T05:57:07.433Z,11.30
2018-04-29T05:58:07.438Z,11.80
2018-04-29T05:59:07.453Z,13.20
2018-04-29T06:00:07.466Z,12.70
2018-04-29T06:01:07.483Z,21.50
2018-04-29T06:02:07.502Z,12.10
2018-04-29T06:03:07.515Z,11.90
2018-04-29T06:04:07.539Z,12.00
2018-04-29T06:05:07.552Z,14.70
2018-04-29T06:06:07.567Z,13.70
2018-04-29T06:07:07.590Z,13.10
2018-04-29T06:08:07.599Z,12.10
2018-04-29T06:09:07.612Z,12.30
2018-04-29T06:10:07.627Z,13.00
2018-04-29T06:11:07.656Z,13.80
2018-04-29T06:12:07.665Z,11.90
2018-04-29T06:13:07.679Z,12.00
2018-04-29T06:14:07.758Z,12.00
2018-04-29T06:15:07.711Z,12.80
2018-04-29T06:16:07.730Z,12.20
2018-04-29T06:17:07.741Z,13.30
2018-04-29T06:18:07.770Z,12.00
2018-04-29T06:19:07.774Z,11.40
2018-04-29T06:20:07.793Z,14.80
2018-04-29T06:21:07.806Z,14.40
2018-04-29T06:22:07.822Z,12.10
2018-04-29T06:23:07.837Z,11.50
2018-04-29T06:24:07.853Z,11.70
2018-04-29T06:25:07.870Z,14.40
2018-04-29T06:26:07.967Z,12.60
2018-04-29T06:27:07.908Z,11.70
2018-04-29T06:28:07.918Z,12.70
2018-04-29T06:29:07.935Z,12.20
2018-04-29T06:30:07.959Z,12.80
2018-04-29T06:31:07.967Z,12.10
2018-04-29T06:32:07.988Z,13.20
2018-04-29T06:33:08.002Z,11.70
2018-04-29T06:34:08.018Z,14.70
2018-04-29T06:35:08.034Z,11.50
2018-04-29T06:36:08.050Z,13.10
2018-04-29T06:37:08.067Z,14.40
2018-04-29T06:38:08.084Z,14.40
2018-04-29T06:39:08.096Z,14.00
2018-04-29T06:40:08.112Z,12.50
2018-04-29T06:41:08.129Z,13.40
2018-04-29T06:42:08.147Z,13.70
2018-04-29T06:43:08.170Z,13.70
2018-04-29T06:44:08.177Z,12.90
2018-04-29T06:45:08.193Z,13.50
2018-04-29T06:46:08.209Z,13.50
2018-04-29T06:47:08.234Z,11.80
2018-04-29T06:48:08.249Z,11.40
2018-04-29T06:49:08.565Z,13.50
2018-04-29T06:50:08.275Z,11.70
2018-04-29T06:51:08.291Z,12.90
2018-04-29T06:52:08.309Z,12.90
2018-04-29T06:53:08.324Z,11.50
2018-04-29T06:54:08.341Z,12.60
2018-04-29T06:55:08.357Z,12.00
2018-04-29T06:56:08.374Z,13.30
2018-04-29T06:57:08.393Z,9.90
2018-04-29T06:58:08.405Z,11.80
2018-04-29T06:59:08.420Z,11.70
2018-04-29T07:00:08.439Z,13.70
2018-04-29T07:01:08.454Z,10.80
2018-04-29T07:02:08.470Z,10.10
2018-04-29T07:03:08.543Z,11.10
2018-04-29T07:04:08.879Z,11.60
2018-04-29T07:05:08.518Z,10.80
2018-04-29T07:06:08.540Z,10.60
2018-04-29T07:07:08.554Z,9.10
2018-04-29T07:08:08.584Z,11.40
2018-04-29T07:09:08.587Z,10.30
2018-04-29T07:10:08.601Z,9.10
2018-04-29T07:11:08.618Z,10.40
2018-04-29T07:12:08.638Z,8.90
2018-04-29T07:13:08.652Z,11.00
2018-04-29T07:14:08.782Z,12.10
2018-04-29T07:15:08.687Z,10.10
2018-04-29T07:16:08.700Z,9.30
2018-04-29T07:17:08.720Z,7.40
2018-04-29T07:18:08.733Z,8.60
2018-04-29T07:19:08.748Z,9.50
2018-04-29T07:20:08.768Z,9.30
2018-04-29T07:21:08.783Z,9.70
2018-04-29T07:22:08.797Z,8.00
2018-04-29T07:23:08.827Z,8.90
2018-04-29T07:24:08.837Z,10.60
2018-04-29T07:25:08.847Z,9.50
2018-04-29T07:26:08.870Z,8.30
2018-04-29T07:27:08.879Z,10.00
2018-04-29T07:28:08.897Z,10.90
2018-04-29T07:29:08.917Z,8.60
2018-04-29T07:30:08.930Z,7.70
2018-04-29T07:31:08.948Z,10.50
2018-04-29T07:32:08.974Z,9.10
2018-04-29T07:33:08.981Z,10.10
2018-04-29T07:34:09.089Z,12.40
2018-04-29T07:35:09.012Z,9.40
2018-04-29T07:36:09.081Z,9.40
2018-04-29T07:38:09.266Z,10.10
2018-04-29T07:39:09.155Z,8.90
2018-04-29T07:40:09.141Z,9.60
2018-04-29T07:41:09.112Z,8.80
2018-04-29T07:42:09.131Z,9.60
2018-04-29T07:43:09.147Z,8.30
2018-04-29T07:44:09.166Z,10.50
2018-04-29T07:45:09.184Z,10.10
2018-04-29T07:46:09.199Z,7.90
2018-04-29T07:47:09.218Z,8.90
2018-04-29T07:48:09.259Z,8.30
2018-04-29T07:49:09.249Z,8.70
2018-04-29T07:50:09.262Z,8.50
2018-04-29T07:51:09.283Z,10.80
2018-04-29T07:52:09.315Z,10.90
2018-04-29T07:53:09.315Z,9.60
2018-04-29T07:54:09.368Z,8.70
2018-04-29T07:55:09.346Z,10.40
2018-04-29T07:56:09.364Z,9.00
2018-04-29T07:57:09.380Z,11.40
2018-04-29T07:58:09.404Z,10.00
2018-04-29T07:59:09.415Z,10.80
2018-04-29T08:00:09.439Z,12.00
2018-04-29T08:01:09.455Z,10.10
2018-04-29T08:02:09.464Z,7.60
2018-04-29T08:03:09.483Z,8.80
2018-04-29T08:04:09.500Z,9.80
2018-04-29T08:05:09.519Z,13.40
2018-04-29T08:06:09.535Z,11.00
2018-04-29T08:07:09.561Z,9.70
2018-04-29T08:08:09.565Z,9.50
2018-04-29T08:09:09.582Z,10.90
2018-04-29T08:12:09.635Z,10.60
2018-04-29T08:13:09.648Z,9.30
2018-04-29T08:14:09.670Z,8.90
2018-04-29T08:15:09.682Z,11.70
2018-04-29T08:16:09.697Z,10.70
2018-04-29T08:17:09.718Z,10.40
2018-04-29T08:18:09.739Z,8.60
2018-04-29T08:19:09.747Z,10.50
2018-04-29T08:20:09.765Z,9.20
2018-04-29T08:21:09.782Z,10.00
2018-04-29T08:22:09.814Z,11.00
2018-04-29T08:23:09.832Z,9.50
2018-04-29T08:24:09.830Z,11.00
2018-04-29T08:25:09.848Z,10.00
2018-04-29T08:26:09.883Z,10.80
2018-04-29T08:27:09.881Z,10.10
2018-04-29T08:28:09.900Z,11.60
2018-04-29T08:29:09.914Z,10.50
2018-04-29T08:30:09.973Z,10.40
2018-04-29T08:31:09.949Z,9.60
2018-04-29T08:32:09.962Z,11.70
2018-04-29T08:33:09.978Z,10.30
2018-04-29T08:34:09.998Z,10.90
2018-04-29T08:35:10.013Z,11.50
2018-04-29T08:36:10.105Z,10.20
2018-04-29T08:37:10.046Z,10.70
2018-04-29T08:38:10.069Z,11.90
2018-04-29T08:39:10.079Z,12.80
2018-04-29T08:40:10.096Z,10.40
2018-04-29T08:41:10.119Z,10.90
2018-04-29T08:42:10.132Z,11.80
2018-04-29T08:43:10.290Z,10.80
2018-04-29T08:44:10.404Z,11.90
2018-04-29T08:45:10.186Z,11.20
2018-04-29T08:46:10.200Z,10.10
2018-04-29T08:47:10.215Z,12.30
2018-04-29T08:48:10.236Z,11.60
2018-04-29T08:49:10.249Z,11.60
2018-04-29T08:50:10.293Z,12.00
2018-04-29T08:51:10.282Z,10.50
2018-04-29T08:52:10.302Z,13.50
2018-04-29T08:53:10.315Z,11.60
2018-04-29T08:54:10.337Z,13.50
2018-04-29T08:55:10.349Z,11.90
2018-04-29T08:56:10.369Z,11.50
2018-04-29T08:57:10.392Z,10.90
2018-04-29T08:58:10.547Z,13.00
2018-04-29T08:59:10.415Z,13.60
2018-04-29T09:00:10.434Z,11.00
2018-04-29T09:01:10.448Z,13.20
2018-04-29T09:02:10.467Z,12.50
2018-04-29T09:03:10.482Z,10.50
2018-04-29T09:04:10.507Z,13.50
2018-04-29T09:05:10.522Z,11.40
2018-04-29T09:06:10.538Z,13.60
2018-04-29T09:07:10.563Z,11.40
2018-04-29T09:08:10.567Z,10.60
2018-04-29T09:09:10.582Z,12.90
2018-04-29T09:10:10.628Z,12.70
2018-04-29T09:11:10.611Z,14.60
2018-04-29T09:12:10.626Z,12.50
2018-04-29T09:13:10.646Z,13.10
2018-04-29T09:14:10.661Z,11.30
2018-04-29T09:15:10.731Z,15.50
2018-04-29T09:16:10.997Z,15.10
2018-04-29T09:17:10.716Z,11.90
2018-04-29T09:18:10.732Z,11.50
2018-04-29T09:19:10.747Z,11.00
2018-04-29T09:20:10.768Z,12.90
2018-04-29T09:21:10.792Z,10.60
2018-04-29T09:22:10.799Z,12.50
2018-04-29T09:23:10.816Z,10.20
2018-04-29T09:24:10.835Z,11.60
2018-04-29T09:25:10.851Z,12.90
2018-04-29T09:26:10.867Z,12.30
2018-04-29T09:27:10.886Z,10.80
2018-04-29T09:28:10.901Z,12.00
2018-04-29T09:29:10.924Z,11.90
2018-04-29T09:30:10.939Z,11.10
2018-04-29T09:31:10.951Z,13.40
2018-04-29T09:32:10.972Z,10.60
2018-04-29T09:33:11.031Z,10.50
2018-04-29T09:34:11.027Z,11.00
2018-04-29T09:35:11.021Z,12.30
2018-04-29T09:36:11.041Z,13.40
2018-04-29T09:37:11.121Z,11.20
2018-04-29T09:38:11.070Z,10.50
2018-04-29T09:39:11.087Z,10.20
2018-04-29T09:40:11.106Z,10.30
2018-04-29T09:41:11.125Z,11.10
2018-04-29T09:42:11.141Z,13.80
2018-04-29T09:43:11.164Z,12.00
2018-04-29T09:44:11.176Z,11.70
2018-04-29T09:45:11.190Z,12.30
2018-04-29T09:46:11.207Z,13.50
2018-04-29T09:47:11.282Z,11.00
2018-04-29T09:48:11.342Z,10.70
2018-04-29T09:49:11.864Z,12.00
2018-04-29T09:50:11.357Z,14.00
2018-04-29T09:51:11.301Z,13.40
2018-04-29T09:52:11.330Z,10.60
2018-04-29T09:53:11.329Z,11.20
2018-04-29T09:54:11.343Z,10.50
2018-04-29T09:55:11.373Z,10.20
2018-04-29T09:56:11.375Z,11.10
2018-04-29T09:57:11.397Z,11.00
2018-04-29T09:58:11.413Z,13.70
2018-04-29T09:59:11.426Z,11.30
2018-04-29T10:00:11.445Z,16.40
2018-04-29T10:01:11.551Z,10.40
2018-04-29T10:02:11.476Z,13.60
2018-04-29T10:03:11.493Z,12.00
2018-04-29T10:04:11.508Z,11.50
2018-04-29T10:05:11.526Z,12.40
2018-04-29T10:06:11.544Z,13.10
2018-04-29T10:07:11.567Z,13.10
2018-04-29T10:08:11.578Z,10.70
2018-04-29T10:09:11.593Z,10.50
2018-04-29T10:10:11.615Z,10.70
2018-04-29T10:11:11.628Z,11.60
2018-04-29T10:12:11.644Z,11.00
2018-04-29T10:13:11.662Z,11.50
2018-04-29T10:14:11.677Z,12.20
2018-04-29T10:15:11.701Z,11.50
2018-04-29T10:16:11.713Z,11.60
2018-04-29T10:17:11.731Z,10.50
2018-04-29T10:18:11.746Z,10.50
2018-04-29T10:20:11.923Z,11.40
2018-04-29T10:21:12.236Z,10.10
2018-04-29T10:22:11.816Z,10.80
2018-04-29T10:23:11.831Z,10.20
2018-04-29T10:24:11.856Z,10.30
2018-04-29T10:25:11.870Z,11.20
2018-04-29T10:26:11.890Z,13.40
2018-04-29T10:27:11.900Z,10.30
2018-04-29T10:28:11.918Z,10.50
2018-04-29T10:30:11.955Z,11.10
2018-04-29T10:31:11.977Z,11.40
2018-04-29T10:32:11.989Z,10.90
2018-04-29T10:33:12.012Z,11.10
2018-04-29T10:34:12.029Z,11.20
2018-04-29T10:35:12.070Z,10.30
2018-04-29T10:36:12.063Z,9.90
2018-04-29T10:37:12.077Z,10.90
2018-04-29T10:38:12.099Z,9.70
2018-04-29T10:39:12.212Z,8.00
2018-04-29T10:40:12.132Z,7.90
2018-04-29T10:41:12.147Z,9.50
2018-04-29T10:42:12.167Z,8.50
2018-04-29T10:43:12.191Z,9.90
2018-04-29T10:44:12.223Z,9.70
2018-04-29T10:45:12.219Z,10.90
2018-04-29T10:46:12.240Z,10.40
2018-04-29T10:47:12.257Z,9.20
2018-04-29T10:48:12.279Z,8.90
2018-04-29T10:49:12.291Z,10.90
2018-04-29T10:50:12.308Z,9.30
2018-04-29T10:51:12.326Z,8.90
2018-04-29T10:52:12.348Z,8.50
2018-04-29T10:53:12.362Z,8.60
2018-04-29T10:55:12.642Z,9.50
2018-04-29T10:56:12.417Z,8.30
2018-04-29T10:57:12.438Z,10.50
2018-04-29T10:58:12.452Z,8.70
2018-04-29T10:59:12.474Z,8.30
2018-04-29T11:00:12.490Z,8.30
2018-04-29T11:01:12.515Z,8.90
2018-04-29T11:02:12.535Z,6.90
2018-04-29T11:03:12.546Z,7.60
2018-04-29T11:04:12.611Z,10.10
2018-04-29T11:05:12.683Z,9.40
2018-04-29T11:06:12.605Z,9.80
2018-04-29T11:07:12.624Z,9.30
2018-04-29T11:08:12.641Z,10.00
2018-04-29T11:09:12.659Z,7.90
2018-04-29T11:10:12.679Z,8.00
2018-04-29T11:11:12.697Z,9.60
2018-04-29T11:12:12.718Z,6.40
2018-04-29T11:13:12.736Z,6.90
2018-04-29T11:14:12.751Z,6.40
2018-04-29T11:15:12.771Z,6.00
2018-04-29T11:16:12.795Z,6.10
2018-04-29T11:17:12.813Z,6.70
2018-04-29T11:18:12.832Z,5.90
2018-04-29T11:19:12.844Z,7.10
2018-04-29T11:20:12.865Z,6.60
2018-04-29T11:21:12.884Z,7.40
2018-04-29T11:22:12.968Z,6.50
2018-04-29T11:23:12.922Z,8.00
2018-04-29T11:24:12.940Z,6.20
2018-04-29T11:25:12.960Z,7.20
2018-04-29T11:26:12.979Z,8.80
2018-04-29T11:28:13.312Z,7.20
2018-04-29T11:29:13.031Z,6.40
2018-04-29T11:30:13.050Z,9.30
2018-04-29T11:31:13.075Z,7.60
2018-04-29T11:32:13.090Z,9.10
2018-04-29T11:33:13.107Z,7.00
2018-04-29T11:34:13.140Z,9.90
2018-04-29T11:35:13.148Z,6.50
2018-04-29T11:36:13.175Z,8.20
2018-04-29T11:37:13.186Z,8.50
2018-04-29T11:38:13.217Z,6.90
2018-04-29T11:39:13.224Z,7.20
2018-04-29T11:40:13.244Z,6.70
2018-04-29T11:41:13.267Z,6.90
2018-04-29T11:42:13.285Z,6.30
2018-04-29T11:43:13.302Z,6.50
2018-04-29T11:44:13.322Z,6.60
2018-04-29T11:45:13.646Z,9.10
2018-04-29T11:46:13.366Z,10.40
2018-04-29T11:47:13.382Z,7.60
2018-04-29T11:48:13.401Z,8.40
2018-04-29T11:49:13.422Z,7.40
2018-04-29T11:50:13.443Z,9.20
2018-04-29T11:51:13.487Z,6.50
2018-04-29T11:52:13.486Z,6.60
2018-04-29T11:53:13.516Z,6.50
2018-04-29T11:54:13.580Z,7.60
2018-04-29T11:55:13.569Z,5.70
2018-04-29T11:56:13.558Z,7.40
2018-04-29T11:57:13.582Z,6.80
2018-04-29T11:58:13.596Z,7.30
2018-04-29T11:59:13.616Z,6.30
2018-04-29T12:00:13.635Z,7.60
2018-04-29T12:01:13.756Z,8.60
2018-04-29T12:02:13.877Z,8.70
2018-04-29T12:03:14.074Z,6.60
2018-04-29T12:04:13.713Z,5.40
2018-04-29T12:05:13.734Z,8.10
2018-04-29T12:06:13.750Z,7.00
2018-04-29T12:07:13.773Z,7.50
2018-04-29T12:08:13.791Z,6.60
2018-04-29T12:09:13.811Z,5.90
2018-04-29T12:10:13.836Z,7.20
2018-04-29T12:11:13.850Z,6.90
2018-04-29T12:12:13.868Z,6.10
2018-04-29T12:13:13.887Z,6.30
2018-04-29T12:14:13.911Z,5.10
2018-04-29T12:15:13.927Z,7.30
2018-04-29T12:16:13.947Z,6.80
2018-04-29T12:17:13.968Z,5.80
2018-04-29T12:18:13.985Z,7.80
2018-04-29T12:19:14.006Z,6.00
2018-04-29T12:20:14.024Z,7.20
2018-04-29T12:21:14.049Z,7.50
2018-04-29T12:22:14.067Z,7.30
2018-04-29T12:23:14.085Z,7.00
2018-04-29T12:24:14.104Z,7.40
2018-04-29T12:25:14.124Z,6.60
2018-04-29T12:26:14.149Z,7.50
2018-04-29T12:27:14.167Z,7.40
2018-04-29T12:28:14.187Z,6.70
2018-04-29T12:29:14.203Z,8.10
2018-04-29T12:30:14.223Z,6.50
2018-04-29T12:31:14.241Z,6.80
2018-04-29T12:32:14.260Z,8.70
2018-04-29T12:33:14.278Z,6.40
2018-04-29T12:34:14.409Z,6.40
2018-04-29T12:36:14.760Z,9.70
2018-04-29T12:37:14.356Z,7.20
2018-04-29T12:38:14.379Z,6.10
2018-04-29T12:39:14.394Z,6.40
2018-04-29T12:40:14.413Z,7.90
2018-04-29T12:41:14.437Z,6.90
2018-04-29T12:42:14.455Z,8.50
2018-04-29T12:43:14.477Z,8.00
2018-04-29T12:44:14.493Z,6.90
2018-04-29T12:45:14.518Z,6.10
2018-04-29T12:46:14.535Z,8.90
2018-04-29T12:47:14.555Z,8.50
2018-04-29T12:48:14.575Z,9.50
2018-04-29T12:49:14.595Z,5.10
2018-04-29T12:50:14.614Z,8.00
2018-04-29T12:51:14.633Z,9.30
2018-04-29T12:52:14.696Z,6.60
2018-04-29T12:53:14.673Z,7.20
2018-04-29T12:54:14.693Z,5.90
2018-04-29T12:55:14.718Z,7.90
2018-04-29T12:56:14.732Z,5.40
2018-04-29T12:57:14.753Z,7.30
2018-04-29T12:58:14.775Z,6.40
2018-04-29T12:59:14.791Z,8.40
2018-04-29T13:00:14.890Z,7.50
2018-04-29T13:01:14.833Z,6.20
2018-04-29T13:02:14.852Z,6.60
2018-04-29T13:03:14.873Z,5.90
2018-04-29T13:04:14.892Z,7.80
2018-04-29T13:05:14.913Z,4.40
2018-04-29T13:06:14.931Z,6.60
2018-04-29T13:07:14.951Z,4.40
2018-04-29T13:08:14.971Z,7.70
2018-04-29T13:10:15.051Z,7.80